sensor_id;sensor_type;location;lat;lon;timestamp;P1;durP1;ratioP1;P2;durP2;ratioP2
43118;SDS011;28729;49.838;8.650;2022-07-09T00:07:26;5.70;;;2.75;;
43118;SDS011;28729;49.838;8.650;2022-07-09T00:11:28;7.22;;;2.95;;
43118;SDS011;28729;49.838;8.650;2022-07-09T00:15:30;6.78;;;2.70;;
43118;SDS011;28729;49.838;8.650;2022-07-09T00:19:32;5.93;;;2.80;;
43118;SDS011;28729;49.838;8.650;2022-07-09T00:23:33;7.97;;;2.55;;
43118;SDS011;28729;49.838;8.650;2022-07-09T00:27:35;6.43;;;2.95;;
43118;SDS011;28729;49.838;8.650;2022-07-09T00:31:37;8.57;;;3.05;;
43118;SDS011;28729;49.838;8.650;2022-07-09T00:35:39;6.88;;;3.28;;
43118;SDS011;28729;49.838;8.650;2022-07-09T00:39:40;5.65;;;2.80;;
43118;SDS011;28729;49.838;8.650;2022-07-09T00:43:45;8.35;;;3.22;;
43118;SDS011;28729;49.838;8.650;2022-07-09T00:47:48;7.78;;;3.28;;
43118;SDS011;28729;49.838;8.650;2022-07-09T00:51:50;5.07;;;2.88;;
43118;SDS011;28729;49.838;8.650;2022-07-09T00:55:53;6.97;;;3.00;;
43118;SDS011;28729;49.838;8.650;2022-07-09T00:59:55;4.57;;;2.88;;
43118;SDS011;28729;49.838;8.650;2022-07-09T01:07:59;8.70;;;3.10;;
43118;SDS011;28729;49.838;8.650;2022-07-09T01:12:01;7.25;;;3.03;;
43118;SDS011;28729;49.838;8.650;2022-07-09T01:16:02;7.80;;;2.80;;
43118;SDS011;28729;49.838;8.650;2022-07-09T01:20:05;8.05;;;2.70;;
43118;SDS011;28729;49.838;8.650;2022-07-09T01:24:08;10.45;;;3.10;;
43118;SDS011;28729;49.838;8.650;2022-07-09T01:28:09;9.02;;;3.75;;
43118;SDS011;28729;49.838;8.650;2022-07-09T01:32:11;6.50;;;3.05;;
43118;SDS011;28729;49.838;8.650;2022-07-09T01:36:13;4.80;;;2.58;;
43118;SDS011;28729;49.838;8.650;2022-07-09T01:40:14;5.15;;;2.13;;
43118;SDS011;28729;49.838;8.650;2022-07-09T01:44:16;4.03;;;2.15;;
43118;SDS011;28729;49.838;8.650;2022-07-09T01:48:18;4.25;;;2.13;;
43118;SDS011;28729;49.838;8.650;2022-07-09T01:52:19;3.67;;;1.85;;
43118;SDS011;28729;49.838;8.650;2022-07-09T01:56:21;2.55;;;1.95;;
43118;SDS011;28729;49.838;8.650;2022-07-09T02:00:23;6.30;;;2.38;;
43118;SDS011;28729;49.838;8.650;2022-07-09T02:04:25;4.32;;;2.13;;
43118;SDS011;28729;49.838;8.650;2022-07-09T02:08:26;9.32;;;2.42;;
43118;SDS011;28729;49.838;8.650;2022-07-09T02:12:28;5.82;;;2.53;;
43118;SDS011;28729;49.838;8.650;2022-07-09T02:16:30;5.95;;;2.50;;
43118;SDS011;28729;49.838;8.650;2022-07-09T02:20:31;8.85;;;2.67;;
43118;SDS011;28729;49.838;8.650;2022-07-09T02:24:33;3.50;;;2.00;;
43118;SDS011;28729;49.838;8.650;2022-07-09T02:28:35;4.65;;;2.30;;
43118;SDS011;28729;49.838;8.650;2022-07-09T02:32:38;3.17;;;2.22;;
43118;SDS011;28729;49.838;8.650;2022-07-09T02:36:40;3.03;;;2.20;;
43118;SDS011;28729;49.838;8.650;2022-07-09T02:40:42;3.40;;;2.30;;
43118;SDS011;28729;49.838;8.650;2022-07-09T02:44:43;4.82;;;2.00;;
43118;SDS011;28729;49.838;8.650;2022-07-09T02:48:45;3.22;;;2.20;;
43118;SDS011;28729;49.838;8.650;2022-07-09T02:52:47;5.07;;;2.30;;
43118;SDS011;28729;49.838;8.650;2022-07-09T02:56:48;4.68;;;2.20;;
43118;SDS011;28729;49.838;8.650;2022-07-09T03:00:50;3.45;;;1.95;;
43118;SDS011;28729;49.838;8.650;2022-07-09T03:04:52;5.70;;;2.65;;
43118;SDS011;28729;49.838;8.650;2022-07-09T03:08:54;4.80;;;2.17;;
43118;SDS011;28729;49.838;8.650;2022-07-09T03:12:55;5.65;;;2.30;;
43118;SDS011;28729;49.838;8.650;2022-07-09T03:16:57;5.22;;;2.08;;
43118;SDS011;28729;49.838;8.650;2022-07-09T03:20:59;2.97;;;1.98;;
43118;SDS011;28729;49.838;8.650;2022-07-09T03:25:01;4.47;;;2.33;;
43118;SDS011;28729;49.838;8.650;2022-07-09T03:29:03;3.65;;;1.88;;
43118;SDS011;28729;49.838;8.650;2022-07-09T03:33:05;5.43;;;2.05;;
43118;SDS011;28729;49.838;8.650;2022-07-09T03:37:06;3.90;;;1.95;;
43118;SDS011;28729;49.838;8.650;2022-07-09T03:41:08;3.05;;;2.20;;
43118;SDS011;28729;49.838;8.650;2022-07-09T03:45:10;4.22;;;2.20;;
43118;SDS011;28729;49.838;8.650;2022-07-09T03:49:11;4.47;;;2.40;;
43118;SDS011;28729;49.838;8.650;2022-07-09T03:53:14;5.63;;;2.50;;
43118;SDS011;28729;49.838;8.650;2022-07-09T03:57:16;5.55;;;1.90;;
43118;SDS011;28729;49.838;8.650;2022-07-09T04:01:18;3.25;;;2.05;;
43118;SDS011;28729;49.838;8.650;2022-07-09T04:05:20;4.30;;;2.20;;
43118;SDS011;28729;49.838;8.650;2022-07-09T04:09:22;3.97;;;2.00;;
43118;SDS011;28729;49.838;8.650;2022-07-09T04:13:23;5.20;;;2.30;;
43118;SDS011;28729;49.838;8.650;2022-07-09T04:17:25;5.78;;;2.80;;
43118;SDS011;28729;49.838;8.650;2022-07-09T04:21:27;4.15;;;2.53;;
43118;SDS011;28729;49.838;8.650;2022-07-09T04:25:29;6.63;;;2.90;;
43118;SDS011;28729;49.838;8.650;2022-07-09T04:29:30;5.18;;;2.75;;
43118;SDS011;28729;49.838;8.650;2022-07-09T04:33:32;4.82;;;3.17;;
43118;SDS011;28729;49.838;8.650;2022-07-09T04:37:34;5.13;;;2.58;;
43118;SDS011;28729;49.838;8.650;2022-07-09T04:41:35;6.38;;;2.88;;
43118;SDS011;28729;49.838;8.650;2022-07-09T04:45:38;5.97;;;2.95;;
43118;SDS011;28729;49.838;8.650;2022-07-09T04:49:40;5.40;;;2.50;;
43118;SDS011;28729;49.838;8.650;2022-07-09T04:53:41;5.78;;;2.78;;
43118;SDS011;28729;49.838;8.650;2022-07-09T04:57:43;6.10;;;2.65;;
43118;SDS011;28729;49.838;8.650;2022-07-09T05:01:45;6.13;;;2.65;;
43118;SDS011;28729;49.838;8.650;2022-07-09T05:05:46;4.38;;;2.95;;
43118;SDS011;28729;49.838;8.650;2022-07-09T05:09:51;4.22;;;2.38;;
43118;SDS011;28729;49.838;8.650;2022-07-09T05:13:53;5.00;;;2.42;;
43118;SDS011;28729;49.838;8.650;2022-07-09T05:17:54;3.70;;;2.35;;
43118;SDS011;28729;49.838;8.650;2022-07-09T05:21:56;7.93;;;2.72;;
43118;SDS011;28729;49.838;8.650;2022-07-09T05:25:58;5.47;;;2.50;;
43118;SDS011;28729;49.838;8.650;2022-07-09T05:30:00;5.50;;;2.25;;
43118;SDS011;28729;49.838;8.650;2022-07-09T05:34:02;5.78;;;2.75;;
43118;SDS011;28729;49.838;8.650;2022-07-09T05:38:04;6.43;;;2.40;;
43118;SDS011;28729;49.838;8.650;2022-07-09T05:42:06;4.93;;;2.60;;
43118;SDS011;28729;49.838;8.650;2022-07-09T05:46:08;7.28;;;2.58;;
43118;SDS011;28729;49.838;8.650;2022-07-09T05:50:10;4.38;;;2.25;;
43118;SDS011;28729;49.838;8.650;2022-07-09T05:54:11;5.10;;;2.10;;
43118;SDS011;28729;49.838;8.650;2022-07-09T05:58:13;5.47;;;2.72;;
43118;SDS011;28729;49.838;8.650;2022-07-09T06:02:17;5.70;;;2.15;;
43118;SDS011;28729;49.838;8.650;2022-07-09T06:06:20;3.85;;;2.40;;
43118;SDS011;28729;49.838;8.650;2022-07-09T06:10:21;9.60;;;2.70;;
43118;SDS011;28729;49.838;8.650;2022-07-09T06:14:24;4.40;;;2.27;;
43118;SDS011;28729;49.838;8.650;2022-07-09T06:18:28;4.47;;;2.92;;
43118;SDS011;28729;49.838;8.650;2022-07-09T06:22:30;4.03;;;2.77;;
43118;SDS011;28729;49.838;8.650;2022-07-09T06:26:32;5.32;;;2.83;;
43118;SDS011;28729;49.838;8.650;2022-07-09T06:34:36;5.68;;;3.70;;
43118;SDS011;28729;49.838;8.650;2022-07-09T06:38:38;5.05;;;3.10;;
43118;SDS011;28729;49.838;8.650;2022-07-09T06:42:59;6.35;;;3.70;;
43118;SDS011;28729;49.838;8.650;2022-07-09T06:47:18;5.93;;;3.85;;
43118;SDS011;28729;49.838;8.650;2022-07-09T06:51:19;6.28;;;4.25;;
43118;SDS011;28729;49.838;8.650;2022-07-09T06:55:21;5.25;;;3.50;;
43118;SDS011;28729;49.838;8.650;2022-07-09T06:59:23;9.48;;;4.13;;
43118;SDS011;28729;49.838;8.650;2022-07-09T07:03:26;9.40;;;3.78;;
43118;SDS011;28729;49.838;8.650;2022-07-09T07:07:28;6.50;;;3.97;;
43118;SDS011;28729;49.838;8.650;2022-07-09T07:11:29;7.75;;;3.85;;
43118;SDS011;28729;49.838;8.650;2022-07-09T07:15:31;6.45;;;3.72;;
43118;SDS011;28729;49.838;8.650;2022-07-09T07:19:33;7.35;;;3.22;;
43118;SDS011;28729;49.838;8.650;2022-07-09T07:23:34;11.27;;;4.30;;
43118;SDS011;28729;49.838;8.650;2022-07-09T07:27:36;6.85;;;4.22;;
43118;SDS011;28729;49.838;8.650;2022-07-09T07:31:38;8.52;;;3.35;;
43118;SDS011;28729;49.838;8.650;2022-07-09T07:35:40;6.60;;;3.40;;
43118;SDS011;28729;49.838;8.650;2022-07-09T07:39:41;8.88;;;3.53;;
43118;SDS011;28729;49.838;8.650;2022-07-09T07:43:43;5.05;;;3.40;;
43118;SDS011;28729;49.838;8.650;2022-07-09T07:51:48;10.20;;;3.88;;
43118;SDS011;28729;49.838;8.650;2022-07-09T07:55:50;6.55;;;3.42;;
43118;SDS011;28729;49.838;8.650;2022-07-09T07:59:51;13.88;;;4.60;;
43118;SDS011;28729;49.838;8.650;2022-07-09T08:03:53;8.57;;;3.88;;
43118;SDS011;28729;49.838;8.650;2022-07-09T08:07:55;7.23;;;4.40;;
43118;SDS011;28729;49.838;8.650;2022-07-09T08:11:56;11.63;;;5.65;;
43118;SDS011;28729;49.838;8.650;2022-07-09T08:15:58;10.20;;;5.53;;
43118;SDS011;28729;49.838;8.650;2022-07-09T08:20:02;13.75;;;4.90;;
43118;SDS011;28729;49.838;8.650;2022-07-09T08:24:04;12.23;;;6.55;;
43118;SDS011;28729;49.838;8.650;2022-07-09T08:28:07;11.27;;;6.07;;
43118;SDS011;28729;49.838;8.650;2022-07-09T08:32:09;8.90;;;4.93;;
43118;SDS011;28729;49.838;8.650;2022-07-09T08:36:11;14.03;;;4.37;;
43118;SDS011;28729;49.838;8.650;2022-07-09T08:40:13;7.20;;;4.32;;
43118;SDS011;28729;49.838;8.650;2022-07-09T08:44:15;8.40;;;3.90;;
43118;SDS011;28729;49.838;8.650;2022-07-09T08:48:20;8.18;;;3.97;;
43118;SDS011;28729;49.838;8.650;2022-07-09T08:52:22;7.43;;;4.40;;
43118;SDS011;28729;49.838;8.650;2022-07-09T08:56:25;6.90;;;3.70;;
43118;SDS011;28729;49.838;8.650;2022-07-09T09:00:27;7.20;;;4.07;;
43118;SDS011;28729;49.838;8.650;2022-07-09T09:04:28;7.65;;;3.63;;
43118;SDS011;28729;49.838;8.650;2022-07-09T09:08:33;8.82;;;3.17;;
43118;SDS011;28729;49.838;8.650;2022-07-09T09:12:39;8.35;;;3.28;;
43118;SDS011;28729;49.838;8.650;2022-07-09T09:16:41;6.07;;;3.90;;
43118;SDS011;28729;49.838;8.650;2022-07-09T09:20:44;7.03;;;3.70;;
43118;SDS011;28729;49.838;8.650;2022-07-09T09:24:50;5.50;;;3.10;;
43118;SDS011;28729;49.838;8.650;2022-07-09T09:28:53;7.75;;;3.42;;
43118;SDS011;28729;49.838;8.650;2022-07-09T09:33:01;10.23;;;3.60;;
43118;SDS011;28729;49.838;8.650;2022-07-09T09:37:04;9.15;;;3.50;;
43118;SDS011;28729;49.838;8.650;2022-07-09T09:41:06;5.10;;;3.00;;
43118;SDS011;28729;49.838;8.650;2022-07-09T09:45:08;7.67;;;3.57;;
43118;SDS011;28729;49.838;8.650;2022-07-09T09:49:11;6.80;;;3.35;;
43118;SDS011;28729;49.838;8.650;2022-07-09T09:53:15;10.18;;;3.22;;
43118;SDS011;28729;49.838;8.650;2022-07-09T09:57:18;7.13;;;3.00;;
43118;SDS011;28729;49.838;8.650;2022-07-09T10:01:25;4.47;;;2.72;;
43118;SDS011;28729;49.838;8.650;2022-07-09T10:05:31;8.57;;;2.97;;
43118;SDS011;28729;49.838;8.650;2022-07-09T10:09:34;7.03;;;2.53;;
43118;SDS011;28729;49.838;8.650;2022-07-09T10:17:54;4.00;;;2.90;;
43118;SDS011;28729;49.838;8.650;2022-07-09T10:21:57;4.43;;;2.78;;
43118;SDS011;28729;49.838;8.650;2022-07-09T10:26:00;4.35;;;2.53;;
43118;SDS011;28729;49.838;8.650;2022-07-09T10:30:01;4.05;;;2.35;;
43118;SDS011;28729;49.838;8.650;2022-07-09T10:34:06;4.00;;;2.22;;
43118;SDS011;28729;49.838;8.650;2022-07-09T10:38:12;7.50;;;2.58;;
43118;SDS011;28729;49.838;8.650;2022-07-09T10:42:17;6.57;;;2.55;;
43118;SDS011;28729;49.838;8.650;2022-07-09T10:46:22;7.35;;;2.72;;
43118;SDS011;28729;49.838;8.650;2022-07-09T10:50:29;6.53;;;2.40;;
43118;SDS011;28729;49.838;8.650;2022-07-09T10:54:33;5.63;;;2.40;;
43118;SDS011;28729;49.838;8.650;2022-07-09T10:58:35;3.83;;;2.10;;
43118;SDS011;28729;49.838;8.650;2022-07-09T11:06:44;4.82;;;2.30;;
43118;SDS011;28729;49.838;8.650;2022-07-09T11:10:50;4.63;;;1.90;;
43118;SDS011;28729;49.838;8.650;2022-07-09T11:14:52;3.97;;;1.75;;
43118;SDS011;28729;49.838;8.650;2022-07-09T11:18:54;5.47;;;1.85;;
43118;SDS011;28729;49.838;8.650;2022-07-09T11:22:56;3.30;;;1.48;;
43118;SDS011;28729;49.838;8.650;2022-07-09T11:27:04;4.78;;;1.60;;
43118;SDS011;28729;49.838;8.650;2022-07-09T11:31:07;16.48;;;2.35;;
43118;SDS011;28729;49.838;8.650;2022-07-09T11:35:10;2.47;;;1.60;;
43118;SDS011;28729;49.838;8.650;2022-07-09T11:43:52;4.38;;;1.42;;
43118;SDS011;28729;49.838;8.650;2022-07-09T11:48:07;3.33;;;1.10;;
43118;SDS011;28729;49.838;8.650;2022-07-09T11:52:18;2.60;;;1.27;;
43118;SDS011;28729;49.838;8.650;2022-07-09T11:56:22;3.25;;;1.42;;
43118;SDS011;28729;49.838;8.650;2022-07-09T12:04:30;2.40;;;1.60;;
43118;SDS011;28729;49.838;8.650;2022-07-09T12:08:32;4.90;;;1.38;;
43118;SDS011;28729;49.838;8.650;2022-07-09T12:12:35;2.97;;;1.60;;
43118;SDS011;28729;49.838;8.650;2022-07-09T12:16:37;2.47;;;1.83;;
43118;SDS011;28729;49.838;8.650;2022-07-09T12:20:39;3.30;;;1.80;;
43118;SDS011;28729;49.838;8.650;2022-07-09T12:24:41;3.75;;;2.00;;
43118;SDS011;28729;49.838;8.650;2022-07-09T12:28:44;4.13;;;1.80;;
43118;SDS011;28729;49.838;8.650;2022-07-09T12:36:48;3.30;;;2.22;;
43118;SDS011;28729;49.838;8.650;2022-07-09T12:41:00;3.70;;;2.38;;
43118;SDS011;28729;49.838;8.650;2022-07-09T12:45:03;4.07;;;2.13;;
43118;SDS011;28729;49.838;8.650;2022-07-09T12:49:11;5.20;;;2.20;;
43118;SDS011;28729;49.838;8.650;2022-07-09T12:53:13;3.88;;;1.83;;
43118;SDS011;28729;49.838;8.650;2022-07-09T12:57:15;2.92;;;1.90;;
43118;SDS011;28729;49.838;8.650;2022-07-09T13:01:17;4.93;;;2.17;;
43118;SDS011;28729;49.838;8.650;2022-07-09T13:05:19;1.95;;;1.58;;
43118;SDS011;28729;49.838;8.650;2022-07-09T13:09:22;4.80;;;1.85;;
43118;SDS011;28729;49.838;8.650;2022-07-09T13:13:24;4.68;;;1.83;;
43118;SDS011;28729;49.838;8.650;2022-07-09T13:17:26;3.17;;;1.90;;
43118;SDS011;28729;49.838;8.650;2022-07-09T13:21:32;2.88;;;1.75;;
43118;SDS011;28729;49.838;8.650;2022-07-09T13:25:35;3.35;;;1.80;;
43118;SDS011;28729;49.838;8.650;2022-07-09T13:29:37;2.78;;;1.83;;
43118;SDS011;28729;49.838;8.650;2022-07-09T13:33:38;2.10;;;1.58;;
43118;SDS011;28729;49.838;8.650;2022-07-09T13:37:40;3.33;;;2.10;;
43118;SDS011;28729;49.838;8.650;2022-07-09T13:41:42;3.47;;;2.40;;
43118;SDS011;28729;49.838;8.650;2022-07-09T13:45:44;4.72;;;2.38;;
43118;SDS011;28729;49.838;8.650;2022-07-09T13:53:48;5.78;;;2.30;;
43118;SDS011;28729;49.838;8.650;2022-07-09T13:57:50;4.55;;;2.20;;
43118;SDS011;28729;49.838;8.650;2022-07-09T14:01:59;3.75;;;2.50;;
43118;SDS011;28729;49.838;8.650;2022-07-09T14:06:05;3.70;;;2.05;;
43118;SDS011;28729;49.838;8.650;2022-07-09T14:10:28;3.72;;;2.05;;
43118;SDS011;28729;49.838;8.650;2022-07-09T14:14:32;5.07;;;2.05;;
43118;SDS011;28729;49.838;8.650;2022-07-09T14:22:36;2.75;;;1.50;;
43118;SDS011;28729;49.838;8.650;2022-07-09T14:26:37;3.25;;;1.70;;
43118;SDS011;28729;49.838;8.650;2022-07-09T14:30:41;3.17;;;1.52;;
43118;SDS011;28729;49.838;8.650;2022-07-09T14:34:43;3.60;;;1.83;;
43118;SDS011;28729;49.838;8.650;2022-07-09T14:38:44;3.05;;;1.52;;
43118;SDS011;28729;49.838;8.650;2022-07-09T14:42:46;3.42;;;2.17;;
43118;SDS011;28729;49.838;8.650;2022-07-09T14:46:48;3.92;;;1.83;;
43118;SDS011;28729;49.838;8.650;2022-07-09T14:50:49;2.00;;;1.50;;
43118;SDS011;28729;49.838;8.650;2022-07-09T14:54:53;2.20;;;1.60;;
43118;SDS011;28729;49.838;8.650;2022-07-09T14:58:55;2.47;;;1.55;;
43118;SDS011;28729;49.838;8.650;2022-07-09T15:02:57;3.97;;;1.73;;
43118;SDS011;28729;49.838;8.650;2022-07-09T15:11:00;2.63;;;1.85;;
43118;SDS011;28729;49.838;8.650;2022-07-09T15:15:02;2.88;;;1.70;;
43118;SDS011;28729;49.838;8.650;2022-07-09T15:23:06;3.28;;;1.50;;
43118;SDS011;28729;49.838;8.650;2022-07-09T15:27:08;2.30;;;1.75;;
43118;SDS011;28729;49.838;8.650;2022-07-09T15:31:09;2.20;;;1.70;;
43118;SDS011;28729;49.838;8.650;2022-07-09T15:35:11;2.67;;;1.90;;
43118;SDS011;28729;49.838;8.650;2022-07-09T15:39:14;6.43;;;1.90;;
43118;SDS011;28729;49.838;8.650;2022-07-09T15:43:15;3.97;;;1.70;;
43118;SDS011;28729;49.838;8.650;2022-07-09T15:47:17;5.55;;;1.88;;
43118;SDS011;28729;49.838;8.650;2022-07-09T15:51:21;2.97;;;1.85;;
43118;SDS011;28729;49.838;8.650;2022-07-09T15:55:25;2.60;;;1.60;;
43118;SDS011;28729;49.838;8.650;2022-07-09T15:59:26;3.25;;;1.90;;
43118;SDS011;28729;49.838;8.650;2022-07-09T16:03:29;4.13;;;1.70;;
43118;SDS011;28729;49.838;8.650;2022-07-09T16:07:32;4.03;;;2.00;;
43118;SDS011;28729;49.838;8.650;2022-07-09T16:11:35;4.07;;;2.28;;
43118;SDS011;28729;49.838;8.650;2022-07-09T16:15:55;2.35;;;1.40;;
43118;SDS011;28729;49.838;8.650;2022-07-09T16:19:57;5.27;;;1.77;;
43118;SDS011;28729;49.838;8.650;2022-07-09T16:23:59;6.77;;;2.10;;
43118;SDS011;28729;49.838;8.650;2022-07-09T16:28:00;4.77;;;2.00;;
43118;SDS011;28729;49.838;8.650;2022-07-09T16:32:02;3.13;;;2.00;;
43118;SDS011;28729;49.838;8.650;2022-07-09T16:40:06;5.95;;;2.13;;
43118;SDS011;28729;49.838;8.650;2022-07-09T16:44:09;3.85;;;2.10;;
43118;SDS011;28729;49.838;8.650;2022-07-09T16:48:11;6.00;;;2.60;;
43118;SDS011;28729;49.838;8.650;2022-07-09T16:52:12;5.63;;;2.70;;
43118;SDS011;28729;49.838;8.650;2022-07-09T16:56:14;4.45;;;2.33;;
43118;SDS011;28729;49.838;8.650;2022-07-09T17:00:17;5.00;;;2.53;;
43118;SDS011;28729;49.838;8.650;2022-07-09T17:04:22;4.15;;;2.00;;
43118;SDS011;28729;49.838;8.650;2022-07-09T17:08:24;10.57;;;2.10;;
43118;SDS011;28729;49.838;8.650;2022-07-09T17:12:26;9.67;;;2.20;;
43118;SDS011;28729;49.838;8.650;2022-07-09T17:16:28;6.10;;;2.60;;
43118;SDS011;28729;49.838;8.650;2022-07-09T17:20:30;4.75;;;2.25;;
43118;SDS011;28729;49.838;8.650;2022-07-09T17:24:31;3.67;;;2.33;;
43118;SDS011;28729;49.838;8.650;2022-07-09T17:28:33;5.32;;;2.75;;
43118;SDS011;28729;49.838;8.650;2022-07-09T17:32:35;5.30;;;3.00;;
43118;SDS011;28729;49.838;8.650;2022-07-09T17:36:37;4.90;;;3.22;;
43118;SDS011;28729;49.838;8.650;2022-07-09T17:40:39;8.05;;;3.85;;
43118;SDS011;28729;49.838;8.650;2022-07-09T17:44:41;9.10;;;3.90;;
43118;SDS011;28729;49.838;8.650;2022-07-09T17:48:43;6.10;;;3.90;;
43118;SDS011;28729;49.838;8.650;2022-07-09T17:52:45;6.88;;;4.40;;
43118;SDS011;28729;49.838;8.650;2022-07-09T17:56:46;5.30;;;4.38;;
43118;SDS011;28729;49.838;8.650;2022-07-09T18:00:48;7.32;;;4.70;;
43118;SDS011;28729;49.838;8.650;2022-07-09T18:04:50;5.65;;;4.45;;
43118;SDS011;28729;49.838;8.650;2022-07-09T18:08:52;7.43;;;4.70;;
43118;SDS011;28729;49.838;8.650;2022-07-09T18:12:53;8.02;;;4.45;;
43118;SDS011;28729;49.838;8.650;2022-07-09T18:16:55;8.18;;;4.65;;
43118;SDS011;28729;49.838;8.650;2022-07-09T18:20:57;5.88;;;4.38;;
43118;SDS011;28729;49.838;8.650;2022-07-09T18:29:01;6.53;;;4.72;;
43118;SDS011;28729;49.838;8.650;2022-07-09T18:33:03;7.30;;;5.15;;
43118;SDS011;28729;49.838;8.650;2022-07-09T18:37:05;10.32;;;5.30;;
43118;SDS011;28729;49.838;8.650;2022-07-09T18:41:06;6.97;;;5.68;;
43118;SDS011;28729;49.838;8.650;2022-07-09T18:45:11;7.53;;;5.20;;
43118;SDS011;28729;49.838;8.650;2022-07-09T18:49:13;9.35;;;6.00;;
43118;SDS011;28729;49.838;8.650;2022-07-09T18:53:14;7.65;;;5.28;;
43118;SDS011;28729;49.838;8.650;2022-07-09T18:57:24;7.45;;;5.40;;
43118;SDS011;28729;49.838;8.650;2022-07-09T19:01:26;7.97;;;5.25;;
43118;SDS011;28729;49.838;8.650;2022-07-09T19:05:28;7.57;;;5.37;;
43118;SDS011;28729;49.838;8.650;2022-07-09T19:09:30;8.35;;;5.97;;
43118;SDS011;28729;49.838;8.650;2022-07-09T19:13:31;8.10;;;5.22;;
43118;SDS011;28729;49.838;8.650;2022-07-09T19:17:35;9.43;;;5.40;;
43118;SDS011;28729;49.838;8.650;2022-07-09T19:21:37;6.97;;;5.75;;
43118;SDS011;28729;49.838;8.650;2022-07-09T19:25:39;6.18;;;5.55;;
43118;SDS011;28729;49.838;8.650;2022-07-09T19:29:41;10.07;;;5.38;;
43118;SDS011;28729;49.838;8.650;2022-07-09T19:33:45;9.13;;;6.13;;
43118;SDS011;28729;49.838;8.650;2022-07-09T19:38:02;7.55;;;5.88;;
43118;SDS011;28729;49.838;8.650;2022-07-09T19:42:04;8.23;;;6.03;;
43118;SDS011;28729;49.838;8.650;2022-07-09T19:46:06;7.55;;;6.13;;
43118;SDS011;28729;49.838;8.650;2022-07-09T19:50:08;9.55;;;6.75;;
43118;SDS011;28729;49.838;8.650;2022-07-09T19:54:11;8.07;;;6.28;;
43118;SDS011;28729;49.838;8.650;2022-07-09T19:58:13;10.00;;;6.65;;
43118;SDS011;28729;49.838;8.650;2022-07-09T20:02:15;8.25;;;6.18;;
43118;SDS011;28729;49.838;8.650;2022-07-09T20:06:20;12.27;;;8.23;;
43118;SDS011;28729;49.838;8.650;2022-07-09T20:10:22;11.63;;;7.63;;
43118;SDS011;28729;49.838;8.650;2022-07-09T20:14:25;9.35;;;6.97;;
43118;SDS011;28729;49.838;8.650;2022-07-09T20:18:28;8.38;;;6.95;;
43118;SDS011;28729;49.838;8.650;2022-07-09T20:22:30;9.00;;;7.47;;
43118;SDS011;28729;49.838;8.650;2022-07-09T20:26:32;9.65;;;6.80;;
43118;SDS011;28729;49.838;8.650;2022-07-09T20:30:33;10.27;;;7.97;;
43118;SDS011;28729;49.838;8.650;2022-07-09T20:34:35;12.63;;;7.90;;
43118;SDS011;28729;49.838;8.650;2022-07-09T20:38:37;12.13;;;7.88;;
43118;SDS011;28729;49.838;8.650;2022-07-09T20:46:41;10.95;;;7.95;;
43118;SDS011;28729;49.838;8.650;2022-07-09T20:50:43;9.73;;;8.30;;
43118;SDS011;28729;49.838;8.650;2022-07-09T20:54:45;10.52;;;7.55;;
43118;SDS011;28729;49.838;8.650;2022-07-09T20:58:47;12.25;;;8.85;;
43118;SDS011;28729;49.838;8.650;2022-07-09T21:02:48;11.00;;;8.43;;
43118;SDS011;28729;49.838;8.650;2022-07-09T21:06:50;11.48;;;8.65;;
43118;SDS011;28729;49.838;8.650;2022-07-09T21:10:51;12.48;;;8.88;;
43118;SDS011;28729;49.838;8.650;2022-07-09T21:14:53;11.45;;;8.82;;
43118;SDS011;28729;49.838;8.650;2022-07-09T21:18:55;11.77;;;9.48;;
43118;SDS011;28729;49.838;8.650;2022-07-09T21:22:56;13.13;;;9.20;;
43118;SDS011;28729;49.838;8.650;2022-07-09T21:26:58;11.68;;;9.43;;
43118;SDS011;28729;49.838;8.650;2022-07-09T21:31:00;16.33;;;9.45;;
43118;SDS011;28729;49.838;8.650;2022-07-09T21:35:02;12.30;;;9.27;;
43118;SDS011;28729;49.838;8.650;2022-07-09T21:39:04;13.57;;;9.48;;
43118;SDS011;28729;49.838;8.650;2022-07-09T21:43:06;12.32;;;8.98;;
43118;SDS011;28729;49.838;8.650;2022-07-09T21:47:07;11.48;;;9.00;;
43118;SDS011;28729;49.838;8.650;2022-07-09T21:51:09;10.50;;;8.95;;
43118;SDS011;28729;49.838;8.650;2022-07-09T21:55:11;12.23;;;8.10;;
43118;SDS011;28729;49.838;8.650;2022-07-09T21:59:13;12.43;;;9.02;;
43118;SDS011;28729;49.838;8.650;2022-07-09T22:03:15;14.02;;;9.85;;
43118;SDS011;28729;49.838;8.650;2022-07-09T22:07:18;11.98;;;9.50;;
43118;SDS011;28729;49.838;8.650;2022-07-09T22:11:19;11.55;;;9.48;;
43118;SDS011;28729;49.838;8.650;2022-07-09T22:15:22;11.57;;;7.93;;
43118;SDS011;28729;49.838;8.650;2022-07-09T22:19:24;13.52;;;8.63;;
43118;SDS011;28729;49.838;8.650;2022-07-09T22:23:26;13.77;;;9.90;;
43118;SDS011;28729;49.838;8.650;2022-07-09T22:27:28;12.82;;;10.57;;
43118;SDS011;28729;49.838;8.650;2022-07-09T22:31:30;14.13;;;10.52;;
43118;SDS011;28729;49.838;8.650;2022-07-09T22:35:32;16.05;;;11.75;;
43118;SDS011;28729;49.838;8.650;2022-07-09T22:39:33;15.48;;;12.23;;
43118;SDS011;28729;49.838;8.650;2022-07-09T22:43:35;17.25;;;13.18;;
43118;SDS011;28729;49.838;8.650;2022-07-09T22:47:37;15.35;;;12.52;;
43118;SDS011;28729;49.838;8.650;2022-07-09T22:51:38;16.63;;;13.25;;
43118;SDS011;28729;49.838;8.650;2022-07-09T22:55:40;15.07;;;11.95;;
43118;SDS011;28729;49.838;8.650;2022-07-09T22:59:42;18.83;;;12.77;;
43118;SDS011;28729;49.838;8.650;2022-07-09T23:03:43;19.27;;;14.73;;
43118;SDS011;28729;49.838;8.650;2022-07-09T23:07:46;19.52;;;14.88;;
43118;SDS011;28729;49.838;8.650;2022-07-09T23:12:06;20.10;;;14.23;;
43118;SDS011;28729;49.838;8.650;2022-07-09T23:16:08;18.73;;;13.73;;
43118;SDS011;28729;49.838;8.650;2022-07-09T23:20:10;20.13;;;14.02;;
43118;SDS011;28729;49.838;8.650;2022-07-09T23:24:12;20.02;;;14.50;;
43118;SDS011;28729;49.838;8.650;2022-07-09T23:28:14;21.50;;;15.73;;
43118;SDS011;28729;49.838;8.650;2022-07-09T23:32:16;26.08;;;15.98;;
43118;SDS011;28729;49.838;8.650;2022-07-09T23:36:18;21.08;;;15.20;;
43118;SDS011;28729;49.838;8.650;2022-07-09T23:40:21;21.88;;;14.77;;
43118;SDS011;28729;49.838;8.650;2022-07-09T23:44:23;18.67;;;14.48;;
43118;SDS011;28729;49.838;8.650;2022-07-09T23:48:25;17.88;;;11.90;;
43118;SDS011;28729;49.838;8.650;2022-07-09T23:52:27;13.73;;;11.40;;
43118;SDS011;28729;49.838;8.650;2022-07-09T23:56:29;13.18;;;10.45;;
